Time;durP1;ratioP1;P1;durP2;ratioP2;P2;SDS_P1;SDS_P2;PMS_P1;PMS_P2;Temp;Humidity;BMP_temperature;BMP_pressure;BME280_temperature;BME280_humidity;BME280_pressure;Samples;Min_cycle;Max_cycle;Signal;HPM_P1;HPM_P2
2022/09/06 00:02:12;;;;;;;5.30;2.58;;;16.40;66.30;;;;;;4916865;29;20036;-83
2022/09/06 00:04:37;;;;;;;5.88;2.40;;;16.30;66.30;;;;;;4910709;29;20116;-82
2022/09/06 00:07:04;;;;;;;5.60;2.10;;;16.30;66.60;;;;;;4923706;29;20036;-82
2022/09/06 00:09:29;;;;;;;7.68;2.35;;;16.30;66.70;;;;;;4922699;29;20460;-82
2022/09/06 00:11:54;;;;;;;4.70;2.15;;;16.30;66.70;;;;;;4918805;29;20036;-83
2022/09/06 00:14:20;;;;;;;7.15;2.60;;;16.20;66.90;;;;;;4923397;29;20212;-82
2022/09/06 00:16:45;;;;;;;3.35;2.35;;;16.20;67.00;;;;;;4918662;29;20039;-82
2022/09/06 00:19:11;;;;;;;6.35;2.45;;;16.20;66.80;;;;;;4919430;29;20059;-81
2022/09/06 00:21:36;;;;;;;5.15;2.45;;;16.30;67.00;;;;;;4914812;29;20452;-82
2022/09/06 00:24:02;;;;;;;5.82;2.22;;;16.30;66.80;;;;;;4925928;29;20044;-82
2022/09/06 00:26:28;;;;;;;4.10;2.20;;;16.20;66.80;;;;;;4915592;29;20035;-82
2022/09/06 00:28:53;;;;;;;8.05;2.40;;;16.20;66.90;;;;;;4921410;29;20043;-82
2022/09/06 00:31:21;;;;;;;5.75;2.38;;;16.10;67.00;;;;;;4904240;29;20118;-82
2022/09/06 00:33:48;;;;;;;3.28;2.13;;;16.10;67.30;;;;;;4923136;29;20034;-84
2022/09/06 00:36:14;;;;;;;5.97;2.50;;;16.10;67.20;;;;;;4907599;29;20033;-84
2022/09/06 00:38:40;;;;;;;4.25;2.53;;;16.10;67.40;;;;;;4905157;29;20032;-83
2022/09/06 00:41:07;;;;;;;5.03;2.13;;;16.10;67.20;;;;;;4922040;29;21554;-82
2022/09/06 00:43:33;;;;;;;3.30;2.13;;;16.10;67.30;;;;;;4921023;29;20063;-82
2022/09/06 00:46:00;;;;;;;4.47;2.38;;;16.00;67.60;;;;;;4917683;29;20380;-82
2022/09/06 00:48:25;;;;;;;5.82;2.30;;;16.00;67.70;;;;;;4921217;29;20087;-82
2022/09/06 00:50:54;;;;;;;4.25;2.20;;;16.00;67.50;;;;;;4921468;29;20032;-81
2022/09/06 00:53:20;;;;;;;2.40;1.75;;;15.90;67.60;;;;;;4908909;29;20528;-82
2022/09/06 00:55:46;;;;;;;4.13;2.00;;;15.90;67.60;;;;;;4919405;29;20055;-81
2022/09/06 00:58:12;;;;;;;4.00;2.03;;;15.90;67.80;;;;;;4917310;29;20137;-82
2022/09/06 01:00:37;;;;;;;5.57;2.13;;;16.00;67.70;;;;;;4903537;29;20028;-82
2022/09/06 01:03:04;;;;;;;3.25;2.13;;;16.00;67.40;;;;;;4908543;29;20032;-82
2022/09/06 01:06:13;;;;;;;3.50;1.70;;;15.90;67.70;;;;;;4905110;29;20044;-82
2022/09/06 01:09:13;;;;;;;5.10;2.55;;;15.80;67.70;;;;;;4868501;29;20040;-81
2022/09/06 01:12:02;;;;;;;3.83;2.13;;;15.80;67.70;;;;;;4897448;29;20073;-83
2022/09/06 01:14:55;;;;;;;4.80;1.90;;;15.80;67.70;;;;;;4895455;29;20052;-82
2022/09/06 01:17:23;;;;;;;6.28;2.05;;;15.80;67.80;;;;;;4915311;29;20028;-83
2022/09/06 01:20:26;;;;;;;4.22;1.98;;;15.80;67.90;;;;;;4918020;29;20028;-83
2022/09/06 01:23:16;;;;;;;3.70;2.03;;;15.80;67.80;;;;;;4915546;29;20102;-82
2022/09/06 01:26:01;;;;;;;5.50;2.47;;;15.80;67.80;;;;;;4906818;29;20087;-83
2022/09/06 01:28:36;;;;;;;3.80;1.90;;;15.70;67.90;;;;;;4921178;29;20294;-83
2022/09/06 01:31:23;;;;;;;3.53;2.13;;;15.70;67.80;;;;;;4914542;29;20538;-82
2022/09/06 01:34:07;;;;;;;4.70;2.50;;;15.70;68.00;;;;;;4924361;29;20032;-83
2022/09/06 01:36:46;;;;;;;2.78;2.08;;;15.70;68.10;;;;;;4893132;29;21766;-82
2022/09/06 01:39:22;;;;;;;5.00;2.35;;;15.60;68.10;;;;;;4918960;29;20024;-83
2022/09/06 01:41:48;;;;;;;4.15;2.33;;;15.60;68.30;;;;;;4923569;29;20020;-82
2022/09/06 01:44:13;;;;;;;4.45;2.38;;;15.60;68.20;;;;;;4924867;29;20044;-83
2022/09/06 01:46:48;;;;;;;5.13;2.50;;;15.60;68.10;;;;;;4903353;29;20059;-83
2022/09/06 01:49:17;;;;;;;3.40;2.15;;;15.60;68.20;;;;;;4922593;29;20107;-83
2022/09/06 01:52:10;;;;;;;6.47;2.65;;;15.60;68.20;;;;;;4902711;29;20054;-83
2022/09/06 01:54:41;;;;;;;4.82;2.15;;;15.60;67.90;;;;;;4907952;29;20108;-83
2022/09/06 01:57:44;;;;;;;5.40;2.10;;;15.60;67.90;;;;;;4903143;29;20036;-84
2022/09/06 02:00:18;;;;;;;4.25;2.58;;;15.60;67.80;;;;;;4922090;29;20152;-83
2022/09/06 02:02:55;;;;;;;5.03;2.45;;;15.70;67.90;;;;;;4905577;29;20560;-82
2022/09/06 02:05:45;;;;;;;4.95;2.15;;;15.60;67.60;;;;;;4913192;29;20044;-82
2022/09/06 02:08:20;;;;;;;4.03;2.20;;;15.60;67.80;;;;;;4905797;29;20111;-83
2022/09/06 02:10:55;;;;;;;5.45;2.13;;;15.60;67.60;;;;;;4901856;29;20140;-82
2022/09/06 02:13:24;;;;;;;5.45;2.30;;;15.60;67.70;;;;;;4922866;29;20060;-83
2022/09/06 02:15:55;;;;;;;4.07;1.95;;;15.60;67.60;;;;;;4917641;29;20104;-83
2022/09/06 02:18:26;;;;;;;5.35;2.20;;;15.60;67.70;;;;;;4921630;29;20032;-83
2022/09/06 02:20:55;;;;;;;3.58;2.38;;;15.60;67.40;;;;;;4904660;29;20082;-83
2022/09/06 02:23:24;;;;;;;4.80;2.30;;;15.70;67.20;;;;;;4926364;29;20034;-83
2022/09/06 02:25:53;;;;;;;5.07;2.50;;;15.70;67.40;;;;;;4923371;29;20046;-83
2022/09/06 02:28:20;;;;;;;3.45;2.20;;;15.60;67.60;;;;;;4923229;29;20028;-82
2022/09/06 02:30:49;;;;;;;5.95;2.25;;;15.60;67.20;;;;;;4902751;29;20040;-82
2022/09/06 02:33:22;;;;;;;4.35;2.20;;;15.60;67.30;;;;;;4913882;29;20429;-83
2022/09/06 02:35:50;;;;;;;4.00;2.30;;;15.50;67.40;;;;;;4916403;29;20062;-84
2022/09/06 02:38:17;;;;;;;5.10;2.28;;;15.50;67.30;;;;;;4904045;29;20028;-82
2022/09/06 02:40:44;;;;;;;6.43;2.28;;;15.50;67.50;;;;;;4920935;29;20032;-82
2022/09/06 02:43:09;;;;;;;5.18;2.30;;;15.50;67.40;;;;;;4928944;29;20032;-83
2022/09/06 02:45:35;;;;;;;5.65;2.22;;;15.50;67.50;;;;;;4923740;29;20066;-82
2022/09/06 02:48:01;;;;;;;3.90;2.55;;;15.50;67.20;;;;;;4901354;29;20040;-82
2022/09/06 02:50:27;;;;;;;3.95;2.38;;;15.50;67.40;;;;;;4916485;29;20028;-83
2022/09/06 02:53:05;;;;;;;6.18;2.47;;;15.50;67.30;;;;;;4913903;29;20140;-84
2022/09/06 02:55:31;;;;;;;5.60;2.42;;;15.50;67.30;;;;;;4917016;29;20443;-83
2022/09/06 02:57:57;;;;;;;10.15;2.72;;;15.50;67.00;;;;;;4899040;29;20036;-83
2022/09/06 03:00:23;;;;;;;4.95;2.25;;;15.50;67.10;;;;;;4916638;29;20049;-84
2022/09/06 03:02:49;;;;;;;5.35;2.50;;;15.50;66.80;;;;;;4893570;29;20103;-83
2022/09/06 03:05:14;;;;;;;4.50;2.25;;;15.50;66.80;;;;;;4924678;29;20127;-83
2022/09/06 03:07:40;;;;;;;7.03;2.30;;;15.50;67.00;;;;;;4901972;29;20167;-83
2022/09/06 03:10:06;;;;;;;4.80;2.50;;;15.50;66.80;;;;;;4922301;29;20047;-83
2022/09/06 03:12:31;;;;;;;5.53;2.15;;;15.50;66.90;;;;;;4907061;29;20027;-83
2022/09/06 03:14:57;;;;;;;5.18;2.83;;;15.50;66.60;;;;;;4924892;29;20058;-84
2022/09/06 03:17:22;;;;;;;6.28;2.40;;;15.50;66.60;;;;;;4906092;29;20441;-83
2022/09/06 03:19:48;;;;;;;6.30;2.65;;;15.50;66.60;;;;;;4921179;29;20120;-83
2022/09/06 03:22:13;;;;;;;4.40;2.47;;;15.50;66.50;;;;;;4918865;29;20039;-83
2022/09/06 03:24:39;;;;;;;4.05;2.45;;;15.50;66.30;;;;;;4921006;29;20095;-82
2022/09/06 03:27:05;;;;;;;4.80;2.40;;;15.50;66.40;;;;;;4922266;29;20056;-83
2022/09/06 03:29:30;;;;;;;5.25;2.45;;;15.50;66.20;;;;;;4905751;29;20024;-84
2022/09/06 03:31:56;;;;;;;5.53;2.60;;;15.50;65.80;;;;;;4919595;29;20046;-84
2022/09/06 03:34:21;;;;;;;5.93;2.20;;;15.50;65.90;;;;;;4909103;29;20021;-83
2022/09/06 03:36:46;;;;;;;5.03;2.10;;;15.50;65.90;;;;;;4921734;29;20116;-83
2022/09/06 03:39:12;;;;;;;5.43;2.40;;;15.60;65.60;;;;;;4919573;29;20036;-83
2022/09/06 03:41:37;;;;;;;4.22;2.33;;;15.50;65.60;;;;;;4918895;29;20040;-82
2022/09/06 03:44:03;;;;;;;6.88;2.42;;;15.50;65.20;;;;;;4922265;29;20024;-83
2022/09/06 03:46:29;;;;;;;5.93;2.33;;;15.50;65.60;;;;;;4922095;29;20090;-82
2022/09/06 03:48:56;;;;;;;5.70;2.00;;;15.40;65.60;;;;;;4927169;29;20048;-83
2022/09/06 03:51:21;;;;;;;4.30;2.10;;;15.50;65.50;;;;;;4927052;29;20052;-83
2022/09/06 03:53:47;;;;;;;3.58;2.15;;;15.40;65.50;;;;;;4921607;29;20028;-83
2022/09/06 03:56:12;;;;;;;4.45;2.50;;;15.40;65.80;;;;;;4908225;29;20048;-82
2022/09/06 03:58:38;;;;;;;3.95;2.10;;;15.30;65.70;;;;;;4923427;29;20099;-83
2022/09/06 04:01:09;;;;;;;5.43;2.58;;;15.40;65.50;;;;;;4922283;29;20028;-83
2022/09/06 04:03:36;;;;;;;4.10;2.63;;;15.30;65.50;;;;;;4922538;29;20123;-82
2022/09/06 04:06:02;;;;;;;5.28;1.98;;;15.30;65.50;;;;;;4902839;29;20111;-83
2022/09/06 04:08:28;;;;;;;4.28;2.10;;;15.30;65.30;;;;;;4901728;29;20070;-83
2022/09/06 04:10:54;;;;;;;7.25;2.40;;;15.20;65.40;;;;;;4898586;29;20386;-84
2022/09/06 04:13:21;;;;;;;4.68;2.33;;;15.20;65.30;;;;;;4903460;29;20024;-83
2022/09/06 04:15:47;;;;;;;4.43;1.98;;;15.20;65.40;;;;;;4906055;29;20107;-83
2022/09/06 04:18:14;;;;;;;3.15;1.95;;;15.20;65.20;;;;;;4918568;29;20036;-82
2022/09/06 04:20:39;;;;;;;5.03;2.20;;;15.10;65.00;;;;;;4924614;29;20028;-83
2022/09/06 04:23:05;;;;;;;4.03;2.00;;;15.10;64.80;;;;;;4917142;29;20148;-83
2022/09/06 04:25:31;;;;;;;6.55;2.10;;;15.10;65.00;;;;;;4904954;29;20096;-82
2022/09/06 04:27:56;;;;;;;7.57;1.90;;;15.10;64.80;;;;;;4921009;29;20483;-83
2022/09/06 04:30:22;;;;;;;5.40;2.15;;;15.10;64.60;;;;;;4928386;29;20096;-83
2022/09/06 04:32:47;;;;;;;5.55;1.88;;;15.10;64.40;;;;;;4923867;29;20095;-83
2022/09/06 04:35:13;;;;;;;5.32;2.10;;;15.00;64.80;;;;;;4913308;29;20490;-85
2022/09/06 04:37:38;;;;;;;5.35;2.00;;;15.10;64.80;;;;;;4925583;29;20123;-85
2022/09/06 04:40:05;;;;;;;4.28;2.03;;;15.00;64.30;;;;;;4928178;29;20071;-84
2022/09/06 04:42:30;;;;;;;4.00;2.10;;;15.00;64.20;;;;;;4910915;29;20039;-83
2022/09/06 04:44:56;;;;;;;4.18;2.20;;;15.00;64.30;;;;;;4915683;29;20043;-83
2022/09/06 04:47:22;;;;;;;6.15;2.22;;;15.10;64.20;;;;;;4913524;29;20051;-87
2022/09/06 04:49:48;;;;;;;8.63;2.45;;;15.10;63.60;;;;;;4902964;29;20028;-85
2022/09/06 04:52:14;;;;;;;4.60;2.20;;;15.10;63.40;;;;;;4899136;29;20468;-83
2022/09/06 04:54:40;;;;;;;5.35;1.90;;;15.10;63.50;;;;;;4916997;29;20475;-84
2022/09/06 04:57:06;;;;;;;5.10;2.22;;;15.10;63.00;;;;;;4924227;29;20112;-85
2022/09/06 04:59:32;;;;;;;4.15;1.73;;;15.10;63.00;;;;;;4929268;29;20138;-84
2022/09/06 05:01:57;;;;;;;5.20;1.60;;;15.10;62.70;;;;;;4926087;29;20036;-85
2022/09/06 05:04:24;;;;;;;4.85;1.88;;;15.10;62.60;;;;;;4915133;29;20049;-86
2022/09/06 05:06:58;;;;;;;4.25;1.60;;;15.10;62.40;;;;;;4914572;29;20032;-86
2022/09/06 05:09:23;;;;;;;2.35;1.50;;;15.10;62.10;;;;;;4939182;23;20054;-64
2022/09/06 05:11:49;;;;;;;3.60;1.75;;;15.10;61.70;;;;;;4946082;28;20031;-63
2022/09/06 05:14:14;;;;;;;2.38;1.35;;;15.20;61.70;;;;;;4951613;28;20031;-63
2022/09/06 05:16:40;;;;;;;4.13;1.67;;;15.20;61.60;;;;;;4951200;29;20055;-63
2022/09/06 05:19:06;;;;;;;4.63;1.80;;;15.30;61.20;;;;;;4953549;28;20028;-63
2022/09/06 05:21:31;;;;;;;2.95;1.65;;;15.30;61.10;;;;;;4948244;28;20028;-65
2022/09/06 05:23:57;;;;;;;3.35;1.40;;;15.30;61.10;;;;;;4942829;28;21284;-67
2022/09/06 05:26:22;;;;;;;3.97;1.52;;;15.30;60.90;;;;;;4946181;28;20027;-66
2022/09/06 05:28:48;;;;;;;7.40;1.73;;;15.40;60.10;;;;;;4946905;28;20392;-67
2022/09/06 05:31:26;;;;;;;3.78;1.70;;;15.30;60.20;;;;;;4946829;28;20024;-68
2022/09/06 05:33:53;;;;;;;5.75;1.90;;;15.40;60.50;;;;;;4949861;28;20042;-66
2022/09/06 05:36:19;;;;;;;5.70;1.63;;;15.40;60.80;;;;;;4948355;28;20039;-66
2022/09/06 05:38:44;;;;;;;3.97;1.55;;;15.40;59.90;;;;;;4950611;28;20050;-67
2022/09/06 05:41:12;;;;;;;3.45;1.40;;;15.50;59.90;;;;;;4949250;28;20456;-68
2022/09/06 05:43:37;;;;;;;2.30;1.27;;;15.50;60.00;;;;;;4949362;28;20283;-66
2022/09/06 05:46:03;;;;;;;2.42;1.52;;;15.50;59.80;;;;;;4945132;29;20615;-66
2022/09/06 05:48:29;;;;;;;2.80;1.30;;;15.50;59.70;;;;;;4948201;28;20019;-65
2022/09/06 05:51:03;;;;;;;2.97;1.67;;;15.50;58.90;;;;;;4952528;28;20504;-65
2022/09/06 05:53:36;;;;;;;2.22;1.25;;;15.50;59.00;;;;;;4943011;29;20039;-66
2022/09/06 05:56:03;;;;;;;3.55;1.52;;;15.50;59.00;;;;;;4939316;28;20035;-66
2022/09/06 05:58:28;;;;;;;3.40;1.48;;;15.50;58.70;;;;;;4948408;28;20027;-65
2022/09/06 06:01:07;;;;;;;2.72;1.40;;;15.60;58.80;;;;;;4949413;28;20079;-65
2022/09/06 06:03:33;;;;;;;3.60;1.33;;;15.60;59.10;;;;;;4938221;28;20094;-67
2022/09/06 06:05:58;;;;;;;4.10;1.20;;;15.60;59.00;;;;;;4957164;28;20026;-65
2022/09/06 06:08:24;;;;;;;4.18;1.30;;;15.70;59.00;;;;;;4970971;28;20042;-67
2022/09/06 06:10:49;;;;;;;4.07;1.50;;;15.70;58.50;;;;;;4974043;28;20035;-65
2022/09/06 06:13:14;;;;;;;2.72;1.30;;;15.70;59.00;;;;;;4976405;28;20022;-65
2022/09/06 06:15:40;;;;;;;4.45;1.40;;;15.80;58.70;;;;;;4971799;28;20356;-64
2022/09/06 06:18:05;;;;;;;2.60;1.40;;;15.70;57.80;;;;;;4971655;28;20034;-64
2022/09/06 06:20:31;;;;;;;1.92;1.02;;;15.70;58.40;;;;;;4960036;28;20023;-65
2022/09/06 06:22:56;;;;;;;3.75;1.30;;;15.70;58.10;;;;;;4957174;28;20042;-66
2022/09/06 06:25:25;;;;;;;2.33;1.17;;;15.70;58.00;;;;;;4967867;28;20436;-69
2022/09/06 06:27:51;;;;;;;2.03;1.20;;;15.80;58.70;;;;;;4965724;28;20126;-66
2022/09/06 06:30:16;;;;;;;3.35;1.17;;;15.70;57.80;;;;;;4973161;28;20034;-65
2022/09/06 06:32:42;;;;;;;5.57;1.70;;;15.80;58.90;;;;;;4970180;28;20034;-65
2022/09/06 06:35:08;;;;;;;1.52;1.00;;;15.80;58.20;;;;;;4967006;28;20065;-66
2022/09/06 06:37:33;;;;;;;4.15;1.50;;;15.80;57.90;;;;;;4969375;28;20042;-65
2022/09/06 06:39:59;;;;;;;3.92;1.40;;;15.90;58.60;;;;;;4967407;28;20097;-69
2022/09/06 06:42:24;;;;;;;3.13;1.20;;;15.90;58.20;;;;;;4963178;28;20042;-66
2022/09/06 06:44:52;;;;;;;2.42;1.33;;;15.80;57.40;;;;;;4964770;28;20443;-66
2022/09/06 06:47:18;;;;;;;3.88;1.33;;;15.80;57.20;;;;;;4964390;28;20023;-66
2022/09/06 06:49:43;;;;;;;3.58;1.42;;;15.80;57.30;;;;;;4959873;28;20046;-66
2022/09/06 06:52:10;;;;;;;5.95;1.08;;;15.80;57.30;;;;;;4970519;28;20031;-67
2022/09/06 06:54:36;;;;;;;2.88;1.00;;;15.80;57.50;;;;;;4967752;28;20022;-66
2022/09/06 06:57:03;;;;;;;2.78;1.08;;;16.00;58.20;;;;;;4970364;28;20447;-66
2022/09/06 06:59:29;;;;;;;4.03;1.15;;;15.90;57.80;;;;;;4965819;28;20023;-66
2022/09/06 07:01:54;;;;;;;5.07;1.35;;;15.90;57.60;;;;;;4973133;28;20097;-65
2022/09/06 07:04:20;;;;;;;2.75;1.20;;;16.00;57.10;;;;;;4962259;28;20066;-65
2022/09/06 07:06:50;;;;;;;6.60;1.50;;;16.00;57.70;;;;;;4966414;28;20038;-65
2022/09/06 07:09:17;;;;;;;4.10;1.10;;;16.00;56.90;;;;;;4969788;28;20603;-64
2022/09/06 07:11:43;;;;;;;2.05;1.17;;;16.00;56.70;;;;;;4965273;28;20066;-64
2022/09/06 07:14:08;;;;;;;2.25;1.20;;;16.00;56.80;;;;;;4971638;28;20106;-64
2022/09/06 07:16:34;;;;;;;4.90;1.00;;;16.20;57.40;;;;;;4972885;28;20352;-66
2022/09/06 07:18:59;;;;;;;2.25;1.05;;;16.30;57.10;;;;;;4975360;28;20019;-65
2022/09/06 07:21:25;;;;;;;3.90;1.02;;;16.20;56.40;;;;;;4956713;28;20304;-64
2022/09/06 07:23:55;;;;;;;5.47;1.35;;;16.40;56.50;;;;;;4965754;28;20062;-64
2022/09/06 07:26:25;;;;;;;5.03;1.15;;;16.30;56.50;;;;;;4975179;28;20051;-64
2022/09/06 07:28:56;;;;;;;4.72;1.33;;;16.30;56.70;;;;;;4974297;28;20035;-66
2022/09/06 07:31:22;;;;;;;6.85;1.52;;;16.50;56.10;;;;;;4956246;28;20035;-64
2022/09/06 07:33:49;;;;;;;2.33;1.00;;;16.60;56.80;;;;;;4957191;28;20041;-65
2022/09/06 07:36:14;;;;;;;3.53;1.40;;;16.50;56.30;;;;;;4955698;29;20042;-64
2022/09/06 07:38:40;;;;;;;3.75;1.30;;;16.50;56.00;;;;;;4957990;28;20031;-64
2022/09/06 07:41:08;;;;;;;2.10;1.05;;;16.60;56.50;;;;;;4961987;28;20101;-63
2022/09/06 07:43:34;;;;;;;2.83;1.20;;;16.70;56.50;;;;;;4974332;28;20477;-64
2022/09/06 07:46:02;;;;;;;5.05;1.02;;;16.80;56.20;;;;;;4972598;28;20118;-65
2022/09/06 07:48:30;;;;;;;2.00;1.00;;;16.70;55.80;;;;;;4974956;28;20030;-64
2022/09/06 07:51:01;;;;;;;4.10;1.17;;;16.80;56.80;;;;;;4973108;28;20030;-65
2022/09/06 07:53:26;;;;;;;2.83;1.10;;;16.70;55.90;;;;;;4972103;28;20037;-64
2022/09/06 07:55:52;;;;;;;3.17;1.23;;;16.80;55.40;;;;;;4962162;28;20126;-64
2022/09/06 07:58:17;;;;;;;1.50;0.90;;;16.70;57.10;;;;;;4954728;28;20031;-65
2022/09/06 08:00:43;;;;;;;4.40;1.27;;;16.80;56.10;;;;;;4960828;28;20045;-65
2022/09/06 08:03:09;;;;;;;3.10;1.10;;;16.70;56.40;;;;;;4974217;28;20030;-65
2022/09/06 08:05:34;;;;;;;5.05;1.10;;;16.60;56.10;;;;;;4973095;28;20106;-64
2022/09/06 08:08:00;;;;;;;6.88;1.10;;;16.70;56.50;;;;;;4963096;28;20416;-66
2022/09/06 08:10:25;;;;;;;2.70;1.00;;;16.80;57.20;;;;;;4962992;28;20076;-68
2022/09/06 08:12:54;;;;;;;2.88;1.17;;;16.90;56.40;;;;;;4969244;28;20089;-65
2022/09/06 08:15:20;;;;;;;3.80;1.10;;;16.80;56.10;;;;;;4973266;28;20030;-65
2022/09/06 08:17:49;;;;;;;3.40;1.25;;;16.90;56.70;;;;;;4968810;28;20078;-64
2022/09/06 08:20:15;;;;;;;4.40;1.35;;;16.70;56.20;;;;;;4971701;28;20022;-65
2022/09/06 08:22:41;;;;;;;2.78;1.20;;;16.80;56.30;;;;;;4972676;28;20035;-64
2022/09/06 08:25:07;;;;;;;3.33;1.58;;;16.90;56.60;;;;;;4962001;28;20367;-64
2022/09/06 08:27:33;;;;;;;2.92;1.40;;;17.00;56.70;;;;;;4971708;28;20023;-64
2022/09/06 08:29:58;;;;;;;5.15;1.27;;;17.10;56.10;;;;;;4968934;28;20047;-65
2022/09/06 08:32:24;;;;;;;3.03;1.30;;;17.10;55.70;;;;;;4970168;28;20451;-64
2022/09/06 08:34:49;;;;;;;1.98;1.10;;;17.10;55.60;;;;;;4974144;28;20383;-65
2022/09/06 08:37:15;;;;;;;4.05;1.42;;;17.30;56.10;;;;;;4972588;28;20042;-65
2022/09/06 08:39:41;;;;;;;5.32;1.25;;;17.50;55.80;;;;;;4974155;28;20027;-65
2022/09/06 08:42:09;;;;;;;2.70;1.27;;;17.80;55.80;;;;;;4972162;28;20037;-65
2022/09/06 08:44:41;;;;;;;3.92;1.30;;;18.00;54.70;;;;;;4968339;28;20038;-65
2022/09/06 08:47:14;;;;;;;2.42;1.05;;;17.80;54.50;;;;;;4972147;28;20371;-65
2022/09/06 08:49:49;;;;;;;2.65;1.27;;;17.90;53.80;;;;;;4966887;28;20087;-65
2022/09/06 08:52:26;;;;;;;2.78;1.20;;;18.00;54.60;;;;;;4972101;28;20459;-65
2022/09/06 08:54:58;;;;;;;1.55;0.75;;;18.20;54.30;;;;;;4965874;28;20097;-66
2022/09/06 08:57:55;;;;;;;3.88;1.00;;;18.60;54.60;;;;;;4972731;28;20418;-65
2022/09/06 09:00:21;;;;;;;2.92;1.15;;;18.50;53.20;;;;;;4972894;28;20121;-65
2022/09/06 09:03:08;;;;;;;2.85;0.90;;;18.50;52.30;;;;;;4972085;28;20038;-65
2022/09/06 09:05:36;;;;;;;5.05;1.30;;;18.70;53.10;;;;;;4973821;28;20399;-64
2022/09/06 09:08:06;;;;;;;2.67;0.73;;;18.50;52.70;;;;;;4972808;28;20023;-65
2022/09/06 09:10:47;;;;;;;6.20;1.75;;;18.60;53.50;;;;;;4972173;28;20047;-66
2022/09/06 09:13:28;;;;;;;4.18;1.35;;;18.80;53.00;;;;;;4973018;28;20039;-64
2022/09/06 09:15:54;;;;;;;4.93;1.45;;;19.00;52.40;;;;;;4971211;28;20031;-65
2022/09/06 09:18:28;;;;;;;2.38;1.10;;;19.00;52.50;;;;;;4959639;28;20409;-64
2022/09/06 09:20:54;;;;;;;3.95;1.20;;;19.00;52.10;;;;;;4954765;28;20169;-65
2022/09/06 09:23:20;;;;;;;2.03;1.00;;;19.00;52.80;;;;;;4955992;28;20105;-65
2022/09/06 09:25:48;;;;;;;6.95;1.73;;;19.10;53.20;;;;;;4960780;28;20058;-65
2022/09/06 09:28:17;;;;;;;2.90;1.42;;;19.20;52.40;;;;;;4969426;28;20525;-64
2022/09/06 09:30:46;;;;;;;7.30;1.13;;;19.20;52.30;;;;;;4967531;28;20046;-64
2022/09/06 09:33:34;;;;;;;4.45;1.42;;;19.40;53.10;;;;;;4967203;28;20523;-64
2022/09/06 09:36:25;;;;;;;7.22;1.38;;;19.40;52.40;;;;;;4970477;28;20479;-65
2022/09/06 09:38:53;;;;;;;3.03;1.20;;;19.70;52.10;;;;;;4969879;28;20043;-66
2022/09/06 09:41:33;;;;;;;3.50;1.15;;;19.70;51.30;;;;;;4977285;28;20054;-67
2022/09/06 09:44:05;;;;;;;4.60;1.50;;;19.90;51.40;;;;;;4975745;28;20018;-65
2022/09/06 09:46:33;;;;;;;2.83;1.05;;;19.80;51.10;;;;;;4974825;28;20094;-65
2022/09/06 09:49:23;;;;;;;3.88;1.35;;;19.90;51.60;;;;;;4972399;28;21013;-65
2022/09/06 09:52:11;;;;;;;1.90;1.02;;;20.20;51.90;;;;;;4961505;28;20027;-67
2022/09/06 09:54:43;;;;;;;4.63;1.45;;;19.90;51.80;;;;;;4962279;28;20034;-65
2022/09/06 09:57:12;;;;;;;3.38;1.00;;;20.30;51.50;;;;;;4963744;28;20039;-65
2022/09/06 09:59:43;;;;;;;3.20;1.20;;;20.60;51.20;;;;;;4976007;28;20023;-66
2022/09/06 10:02:34;;;;;;;;;;;20.90;50.90;;;;;;4973752;28;20071;-65
2022/09/06 10:05:03;;;;;;;6.65;1.73;;;21.10;50.00;;;;;;4955737;28;19913;-65
2022/09/06 10:07:31;;;;;;;3.67;1.23;;;20.60;50.10;;;;;;4957493;28;20022;-65
2022/09/06 10:10:06;;;;;;;2.92;1.38;;;21.10;50.40;;;;;;4961827;28;20050;-65
2022/09/06 10:12:37;;;;;;;2.50;1.17;;;20.90;49.70;;;;;;4976191;28;20023;-65
2022/09/06 10:15:04;;;;;;;2.88;1.48;;;21.40;50.00;;;;;;4974177;28;20080;-65
2022/09/06 10:17:50;;;;;;;3.83;1.30;;;21.00;49.60;;;;;;4974950;28;20031;-66
2022/09/06 10:20:16;;;;;;;3.15;1.45;;;21.00;49.90;;;;;;4970678;28;20027;-65
2022/09/06 10:23:05;;;;;;;7.88;1.73;;;20.90;51.70;;;;;;4971302;28;20433;-65
2022/09/06 10:25:38;;;;;;;4.13;1.40;;;21.00;51.10;;;;;;4971496;28;20038;-65
2022/09/06 10:28:17;;;;;;;6.07;1.45;;;21.20;49.80;;;;;;4972042;28;20022;-65
2022/09/06 10:31:14;;;;;;;2.75;1.08;;;21.20;50.60;;;;;;4955064;29;20126;-65
2022/09/06 10:34:13;;;;;;;4.13;1.40;;;21.60;50.70;;;;;;4971962;28;20026;-65
2022/09/06 10:37:06;;;;;;;3.42;1.50;;;21.90;50.70;;;;;;4975423;28;20043;-65
2022/09/06 10:39:47;;;;;;;4.30;1.60;;;21.50;50.60;;;;;;4976374;28;20026;-65
2022/09/06 10:42:20;;;;;;;;;;;21.90;50.70;;;;;;4976287;28;20041;-64
2022/09/06 10:45:14;;;;;;;6.57;1.42;;;21.60;51.10;;;;;;4975105;28;20339;-65
2022/09/06 10:48:03;;;;;;;3.00;1.60;;;21.90;52.40;;;;;;4971836;28;20030;-65
2022/09/06 10:50:55;;;;;;;4.70;1.55;;;21.60;51.00;;;;;;4970513;28;20035;-65
2022/09/06 10:53:45;;;;;;;3.67;1.60;;;21.90;50.90;;;;;;4976260;28;20026;-65
2022/09/06 10:56:52;;;;;;;4.75;1.58;;;21.60;51.80;;;;;;4967314;28;20037;-65
2022/09/06 10:59:24;;;;;;;4.30;1.73;;;21.50;51.00;;;;;;4956027;28;20031;-65
2022/09/06 11:02:00;;;;;;;2.40;1.70;;;21.40;52.80;;;;;;4971079;28;20039;-65
2022/09/06 11:04:32;;;;;;;4.75;1.90;;;21.50;52.70;;;;;;4976117;28;20027;-65
2022/09/06 11:07:02;;;;;;;6.45;2.08;;;21.60;53.00;;;;;;4975564;28;20038;-65
2022/09/06 11:09:31;;;;;;;5.22;1.90;;;21.70;52.50;;;;;;4974648;28;20364;-65
2022/09/06 11:12:11;;;;;;;4.90;2.30;;;21.50;53.70;;;;;;4975496;28;20027;-65
2022/09/06 11:14:38;;;;;;;5.00;2.28;;;21.50;54.20;;;;;;4969666;28;20038;-65
2022/09/06 11:17:17;;;;;;;4.53;2.00;;;21.40;54.70;;;;;;4973757;28;20118;-65
2022/09/06 11:20:01;;;;;;;4.47;2.13;;;21.10;54.70;;;;;;4964298;28;20466;-65
2022/09/06 11:22:38;;;;;;;4.82;2.30;;;21.20;54.80;;;;;;4956384;29;20102;-64
2022/09/06 11:25:38;;;;;;;4.07;2.33;;;21.40;55.20;;;;;;4965000;28;20023;-65
2022/09/06 11:28:09;;;;;;;3.45;2.03;;;20.90;55.60;;;;;;4974863;28;20023;-65
2022/09/06 11:30:34;;;;;;;5.82;2.40;;;20.90;55.70;;;;;;4970149;28;20026;-65
2022/09/06 11:33:24;;;;;;;4.47;2.40;;;20.60;56.20;;;;;;4962949;28;20034;-66
2022/09/06 11:35:51;;;;;;;6.72;2.45;;;20.80;56.80;;;;;;4969661;28;20117;-65
2022/09/06 11:38:22;;;;;;;4.07;2.00;;;20.50;57.40;;;;;;4975271;28;20386;-64
2022/09/06 11:41:01;;;;;;;6.63;2.50;;;20.50;57.80;;;;;;4974942;28;20511;-64
2022/09/06 11:43:50;;;;;;;3.95;2.10;;;20.60;58.80;;;;;;4955054;29;20031;-65
2022/09/06 11:46:33;;;;;;;4.43;2.28;;;20.50;58.80;;;;;;4965544;28;20097;-64
2022/09/06 11:49:27;;;;;;;4.93;2.20;;;20.30;60.10;;;;;;4959384;28;20054;-66
2022/09/06 11:51:52;;;;;;;6.50;2.90;;;20.10;60.60;;;;;;4953685;28;20050;-66
2022/09/06 11:54:41;;;;;;;7.07;2.63;;;20.00;61.20;;;;;;4973505;28;20542;-66
2022/09/06 11:57:07;;;;;;;5.63;2.85;;;20.10;61.00;;;;;;4955078;29;20031;-66
2022/09/06 11:59:40;;;;;;;4.40;2.90;;;20.00;60.80;;;;;;4968468;28;20482;-66
2022/09/06 12:02:34;;;;;;;6.60;2.25;;;20.00;61.30;;;;;;4972748;28;20026;-66
2022/09/06 12:05:03;;;;;;;5.43;2.60;;;20.00;61.30;;;;;;4963937;28;20058;-67
2022/09/06 12:07:37;;;;;;;6.30;2.50;;;20.20;61.00;;;;;;4963854;28;20408;-65
2022/09/06 12:10:30;;;;;;;9.60;2.92;;;19.90;61.20;;;;;;4965337;28;20082;-65
2022/09/06 12:12:56;;;;;;;3.25;2.50;;;19.70;62.20;;;;;;4962827;28;20026;-66
2022/09/06 12:15:26;;;;;;;6.60;2.70;;;19.80;62.50;;;;;;4963470;28;20031;-65
2022/09/06 12:17:51;;;;;;;5.75;2.50;;;19.70;62.70;;;;;;4961895;28;20074;-65
2022/09/06 12:20:53;;;;;;;5.88;2.83;;;19.70;64.00;;;;;;4966260;28;20887;-65
2022/09/06 12:23:34;;;;;;;4.28;2.55;;;19.60;63.20;;;;;;4964282;28;20031;-64
2022/09/06 12:26:01;;;;;;;4.80;2.53;;;19.60;62.60;;;;;;4967932;28;20113;-66
2022/09/06 12:28:33;;;;;;;4.07;2.47;;;19.50;62.50;;;;;;4966154;28;20035;-66
2022/09/06 12:31:00;;;;;;;9.05;2.60;;;19.60;62.50;;;;;;4968721;28;20461;-66
2022/09/06 12:33:35;;;;;;;4.10;2.53;;;19.50;62.10;;;;;;4971459;28;20467;-66
2022/09/06 12:36:28;;;;;;;4.43;2.55;;;19.50;62.00;;;;;;4966658;28;20034;-65
2022/09/06 12:38:56;;;;;;;5.88;2.47;;;19.50;62.00;;;;;;4969020;28;20037;-66
2022/09/06 12:41:23;;;;;;;8.20;2.17;;;19.50;62.20;;;;;;4959710;28;20023;-69
2022/09/06 12:43:49;;;;;;;4.65;2.15;;;19.50;62.00;;;;;;4964458;28;20486;-66
2022/09/06 12:46:15;;;;;;;5.00;2.60;;;19.50;62.00;;;;;;4960097;28;20031;-65
2022/09/06 12:48:43;;;;;;;5.82;2.58;;;19.60;61.80;;;;;;4954575;28;20031;-66
2022/09/06 12:51:19;;;;;;;3.47;2.30;;;19.60;62.20;;;;;;4974004;28;20078;-65
2022/09/06 12:53:53;;;;;;;5.90;2.30;;;19.60;62.10;;;;;;4974131;28;20018;-65
2022/09/06 12:56:20;;;;;;;4.32;2.70;;;19.70;62.30;;;;;;4970849;28;20114;-65
2022/09/06 12:58:46;;;;;;;6.20;2.45;;;19.70;61.30;;;;;;4960023;28;20456;-66
2022/09/06 13:01:17;;;;;;;12.05;2.35;;;19.70;61.20;;;;;;4969211;28;20031;-66
2022/09/06 13:03:44;;;;;;;;;;;19.60;61.90;;;;;;4972215;28;20046;-65
2022/09/06 13:06:17;;;;;;;4.55;2.42;;;19.70;61.50;;;;;;4971346;28;19906;-65
2022/09/06 13:08:51;;;;;;;6.57;2.60;;;19.70;61.10;;;;;;4971730;28;20530;-65